Hlavní strana
METAR-TAF:

METAR-TAF

Letiště :

Kittilä, Finsko

zeměpisná šířka: 67-42N, zeměpisná délka: 024-51E, výška: 196 m

Aktuální stav počasí

Zpráva byla vytvořena před 27 minutami, v 12:50 UTC
Západní vítr 4 kt, proměnlivý mezi západojihozápadním a severozápadním
Teplota 6°C
Vlhkost vzduchu 75%
Tlak 1010 hPa
Viditelnost 10 km a více
Oblačno až skoro zataženo ve výšce 2300 ft

METAR: EFKT 191250Z AUTO 28004KT 240V320 9999 BKN023 06/02 Q1010

Čas: 16:17 (13:17 UTC)

Předpověď počasí

Zpráva byla vytvořena před 1 hodinou a 53 minutami, v 11:24 UTC
Předpověď platná od 19 v 12 UTC do 19 v 17 UTC
Severozápadní vítr 6 kt
Viditelnost 10 km a více
Polojasno ve výšce 3000 ft

TAF: EFKT 191124Z 1912/1917 31006KT 9999 SCT030

Stav a předpovědi počasí z více než 4 000 letišť (zprávy METAR a TAF).

Červené a žluté tečky na mapě představují dostupné meteorologické stanice.

Když kurzor umístíte na tečku, zobrazí se název stanice.

Pak kliknutím zobrazíte stav a předpověď počasí.

Chcete-li změnit mapu, kliknutím na zelené tlačítko se znaménkem +mapu přiblížíte, kliknutím na zelené tlačítko se znaménkem – mapu oddálíte a kliknutím na zelené šipky přejdete na sousední mapy.


METAR-TAF: